Time;durP1;ratioP1;P1;durP2;ratioP2;P2;SDS_P1;SDS_P2;PMS_P1;PMS_P2;Temp;Humidity;BMP_temperature;BMP_pressure;BME280_temperature;BME280_humidity;BME280_pressure;Samples;Min_cycle;Max_cycle;Signal;HPM_P1;HPM_P2
2024/01/02 00:00:40;;;;;;;27.10;12.10;;;;;;;2.78;83.06;96525.46;107859;1235;99145;-71
2024/01/02 00:03:27;;;;;;;19.30;7.70;;;;;;;2.77;83.13;96521.48;107808;1239;102350;-71
2024/01/02 00:05:53;;;;;;;14.50;6.30;;;;;;;2.81;83.11;96520.63;107874;1237;98165;-71
2024/01/02 00:08:19;;;;;;;16.30;6.80;;;;;;;2.90;83.21;96520.26;107784;1239;99045;-72
2024/01/02 00:10:46;;;;;;;14.40;5.80;;;;;;;2.99;82.89;96515.95;108000;1234;97912;-71
2024/01/02 00:13:12;;;;;;;13.40;5.50;;;;;;;3.09;82.72;96512.60;107816;1245;101337;-71
2024/01/02 00:15:38;;;;;;;12.10;5.50;;;;;;;3.16;82.59;96514.77;107651;1238;97966;-71
2024/01/02 00:18:05;;;;;;;15.40;5.50;;;;;;;3.21;82.40;96515.74;107725;1237;97954;-73
2024/01/02 00:20:31;;;;;;;15.40;6.30;;;;;;;3.28;82.20;96516.58;107759;1238;98814;-73
2024/01/02 00:22:57;;;;;;;12.20;5.80;;;;;;;3.32;82.18;96513.77;107683;1246;100897;-73
2024/01/02 00:25:23;;;;;;;12.20;5.40;;;;;;;3.35;82.04;96512.29;107687;1238;98651;-73
2024/01/02 00:27:50;;;;;;;14.30;6.00;;;;;;;3.38;82.04;96507.14;107678;1239;97919;-73
2024/01/02 00:30:16;;;;;;;11.20;5.80;;;;;;;3.42;81.99;96510.14;107754;1238;97933;-73
2024/01/02 00:32:43;;;;;;;13.10;5.80;;;;;;;3.45;81.87;96509.23;107726;1237;101006;-71
2024/01/02 00:35:09;;;;;;;11.20;6.50;;;;;;;3.48;81.82;96503.44;107767;1238;98014;-76
2024/01/02 00:37:35;;;;;;;13.40;6.60;;;;;;;3.48;81.79;96505.66;107775;1239;97944;-71
2024/01/02 00:40:02;;;;;;;17.10;6.00;;;;;;;3.47;81.75;96506.52;107783;1239;97900;-71
2024/01/02 00:42:28;;;;;;;13.90;5.90;;;;;;;3.47;81.58;96507.81;107765;1239;101291;-71
2024/01/02 00:44:54;;;;;;;12.50;6.90;;;;;;;3.46;81.58;96508.63;107789;1246;97908;-71
2024/01/02 00:47:21;;;;;;;13.00;6.60;;;;;;;3.46;81.54;96509.13;107664;1238;97937;-71
2024/01/02 00:49:50;;;;;;;14.50;6.50;;;;;;;3.47;81.46;96510.08;107741;1237;98164;-71
2024/01/02 00:52:16;;;;;;;15.80;6.50;;;;;;;3.48;81.44;96506.60;107719;1239;101058;-71
2024/01/02 00:54:43;;;;;;;16.10;6.20;;;;;;;3.49;81.57;96510.06;107758;1238;97921;-76
2024/01/02 00:57:09;;;;;;;13.20;6.40;;;;;;;3.47;81.56;96512.35;107768;1238;97908;-76
2024/01/02 00:59:35;;;;;;;10.90;6.60;;;;;;;3.47;81.45;96517.88;107883;1237;98026;-76
2024/01/02 01:02:01;;;;;;;12.90;6.30;;;;;;;3.45;81.53;96519.41;107753;1244;100065;-78
2024/01/02 01:04:28;;;;;;;13.40;6.10;;;;;;;3.43;81.48;96516.14;107821;1238;97921;-77
2024/01/02 01:06:54;;;;;;;12.60;6.60;;;;;;;3.38;81.45;96514.48;107774;1245;97924;-78
2024/01/02 01:09:20;;;;;;;21.00;9.60;;;;;;;3.35;81.53;96517.53;107856;1239;99258;-77
2024/01/02 01:11:47;;;;;;;15.10;7.50;;;;;;;3.32;81.57;96517.98;107781;1246;100959;-74
2024/01/02 01:14:13;;;;;;;14.50;7.00;;;;;;;3.31;81.63;96519.14;107788;1246;97963;-76
2024/01/02 01:16:39;;;;;;;19.90;7.70;;;;;;;3.27;81.66;96510.25;107813;1248;97985;-79
2024/01/02 01:19:05;;;;;;;17.70;9.50;;;;;;;3.24;81.64;96508.77;107855;1245;97949;-79
2024/01/02 01:21:32;;;;;;;21.70;10.20;;;;;;;3.17;81.51;96509.95;107786;1238;100931;-78
2024/01/02 01:23:58;;;;;;;26.60;12.80;;;;;;;3.14;81.60;96513.42;107765;1238;98731;-78
2024/01/02 01:26:24;;;;;;;22.50;12.50;;;;;;;3.09;81.72;96501.43;107776;1239;97919;-79
2024/01/02 01:28:50;;;;;;;22.20;11.30;;;;;;;3.05;81.66;96502.56;107814;1248;97915;-79
2024/01/02 01:31:17;;;;;;;18.90;10.70;;;;;;;3.01;81.77;96500.59;107751;1235;101029;-76
2024/01/02 01:33:43;;;;;;;19.00;9.30;;;;;;;2.96;81.89;96504.44;107781;1239;99141;-72
2024/01/02 01:36:09;;;;;;;24.10;10.30;;;;;;;2.91;81.85;96498.86;107742;1249;97916;-71
2024/01/02 01:38:36;;;;;;;18.40;9.70;;;;;;;2.88;81.85;96501.09;107864;1245;97928;-72
2024/01/02 01:41:03;;;;;;;19.90;9.40;;;;;;;2.86;81.97;96506.52;107785;1237;101415;-72
2024/01/02 01:43:29;;;;;;;22.10;9.70;;;;;;;2.87;82.18;96508.61;107784;1246;99175;-72
2024/01/02 01:45:56;;;;;;;20.30;9.80;;;;;;;2.85;82.14;96507.86;107758;1246;99158;-72
2024/01/02 01:48:22;;;;;;;16.10;8.30;;;;;;;2.82;82.19;96514.52;107818;1239;98027;-71
2024/01/02 01:50:49;;;;;;;20.10;8.50;;;;;;;2.80;82.24;96514.73;107854;1243;99157;-72
2024/01/02 01:53:17;;;;;;;17.20;8.40;;;;;;;2.79;82.32;96513.45;107761;1249;99541;-71
2024/01/02 01:55:43;;;;;;;14.90;8.10;;;;;;;2.79;82.46;96515.08;107770;1238;97915;-71
2024/01/02 01:58:10;;;;;;;19.50;8.10;;;;;;;2.78;82.51;96518.48;107799;1245;97948;-72
2024/01/02 02:00:37;;;;;;;17.00;8.60;;;;;;;2.78;82.51;96518.33;107800;1238;99144;-76
2024/01/02 02:03:05;;;;;;;16.50;8.90;;;;;;;2.79;82.57;96516.76;107816;1237;99289;-77
2024/01/02 02:05:32;;;;;;;18.70;8.10;;;;;;;2.80;82.62;96520.73;107795;1238;97940;-76
2024/01/02 02:08:01;;;;;;;13.20;7.70;;;;;;;2.81;82.62;96522.91;107770;1241;99000;-77
2024/01/02 02:10:30;;;;;;;14.90;7.50;;;;;;;2.83;82.69;96520.90;107772;1237;103379;-71
2024/01/02 02:12:58;;;;;;;13.00;5.90;;;;;;;2.85;82.72;96522.45;107781;1239;101555;-72
2024/01/02 02:15:24;;;;;;;10.50;5.90;;;;;;;2.89;82.71;96519.14;107792;1240;99760;-72
2024/01/02 02:17:50;;;;;;;12.30;5.20;;;;;;;2.97;82.68;96516.55;107705;1239;98027;-71
2024/01/02 02:20:17;;;;;;;12.50;4.70;;;;;;;3.05;82.59;96510.68;107791;1239;97845;-71
2024/01/02 02:22:50;;;;;;;14.80;4.50;;;;;;;3.14;82.56;96516.12;107895;1238;98505;-72
2024/01/02 02:25:17;;;;;;;15.80;4.90;;;;;;;3.20;82.49;96519.38;107768;1239;98910;-72
2024/01/02 02:27:47;;;;;;;9.30;4.40;;;;;;;3.26;82.47;96520.83;107792;1240;98029;-72
2024/01/02 02:30:14;;;;;;;9.90;4.60;;;;;;;3.30;82.44;96526.02;107779;1238;99699;-72
2024/01/02 02:32:40;;;;;;;10.40;4.80;;;;;;;3.34;82.35;96524.66;107705;1249;99128;-77
2024/01/02 02:35:08;;;;;;;9.00;4.30;;;;;;;3.36;82.39;96526.65;107792;1248;97928;-77
2024/01/02 02:37:34;;;;;;;12.40;4.20;;;;;;;3.36;82.21;96521.98;107806;1240;97939;-77
2024/01/02 02:40:01;;;;;;;9.10;4.10;;;;;;;3.38;82.22;96526.88;107935;1238;97923;-77
2024/01/02 02:42:27;;;;;;;11.90;4.90;;;;;;;3.40;82.18;96530.23;107766;1247;103409;-77
2024/01/02 02:44:54;;;;;;;9.90;4.60;;;;;;;3.43;82.23;96525.20;107805;1239;97995;-77
2024/01/02 02:47:21;;;;;;;9.20;4.10;;;;;;;3.43;82.12;96522.67;107694;1238;97992;-75
2024/01/02 02:49:49;;;;;;;10.20;4.10;;;;;;;3.43;82.01;96518.98;107820;1238;98750;-72
2024/01/02 02:52:16;;;;;;;9.60;4.80;;;;;;;3.43;82.02;96512.83;107810;1241;98027;-72
2024/01/02 02:54:42;;;;;;;9.80;4.30;;;;;;;3.45;81.93;96510.38;107818;1248;98021;-72
2024/01/02 02:57:08;;;;;;;7.80;4.30;;;;;;;3.46;81.93;96513.77;107832;1249;98378;-72
2024/01/02 02:59:35;;;;;;;10.00;4.80;;;;;;;3.48;81.92;96514.36;107762;1238;97922;-72
2024/01/02 03:02:01;;;;;;;7.90;3.50;;;;;;;3.50;81.93;96511.73;107815;1239;97911;-77
2024/01/02 03:04:27;;;;;;;9.50;3.80;;;;;;;3.50;81.86;96505.65;107741;1239;98836;-77
2024/01/02 03:06:55;;;;;;;8.50;3.50;;;;;;;3.52;81.72;96507.12;107793;1247;98159;-77
2024/01/02 03:09:25;;;;;;;9.70;3.90;;;;;;;3.52;81.63;96504.62;107771;1238;97905;-78
2024/01/02 03:11:51;;;;;;;8.40;3.60;;;;;;;3.53;81.62;96501.64;107755;1239;98024;-72
2024/01/02 03:14:18;;;;;;;8.40;3.60;;;;;;;3.55;81.57;96500.67;107809;1238;97920;-72
2024/01/02 03:16:44;;;;;;;8.20;3.60;;;;;;;3.58;81.56;96495.58;107681;1239;99145;-77
2024/01/02 03:19:10;;;;;;;9.50;3.30;;;;;;;3.60;81.51;96500.65;107847;1235;97922;-77
2024/01/02 03:21:37;;;;;;;8.80;3.90;;;;;;;3.60;81.42;96501.28;107775;1239;98829;-77
2024/01/02 03:24:03;;;;;;;8.00;3.80;;;;;;;3.59;81.24;96501.42;107778;1239;98091;-76
2024/01/02 03:26:29;;;;;;;9.20;4.00;;;;;;;3.58;81.29;96500.21;107754;1238;99153;-77
2024/01/02 03:28:56;;;;;;;7.90;3.10;;;;;;;3.61;81.26;96500.50;107754;1235;97895;-75
2024/01/02 03:31:22;;;;;;;7.00;3.40;;;;;;;3.61;81.17;96501.70;107703;1245;98366;-79
2024/01/02 03:33:48;;;;;;;6.40;3.50;;;;;;;3.62;81.07;96504.60;107793;1239;97911;-79
2024/01/02 03:36:19;;;;;;;7.50;3.50;;;;;;;3.61;80.92;96502.27;107795;1238;97906;-79
2024/01/02 03:38:50;;;;;;;9.10;3.60;;;;;;;3.62;80.87;96501.58;107755;1240;99868;-79
2024/01/02 03:41:16;;;;;;;6.60;3.30;;;;;;;3.62;80.83;96499.60;107744;1244;97999;-79
2024/01/02 03:43:43;;;;;;;7.90;3.50;;;;;;;3.63;80.82;96501.66;107790;1240;97906;-79
2024/01/02 03:46:09;;;;;;;10.00;4.40;;;;;;;3.62;80.92;96494.25;107735;1249;97924;-79
2024/01/02 03:48:35;;;;;;;5.70;3.80;;;;;;;3.63;80.62;96493.65;107842;1239;98029;-72
2024/01/02 03:51:02;;;;;;;7.30;3.40;;;;;;;3.62;80.66;96492.65;107753;1237;97926;-72
2024/01/02 03:53:28;;;;;;;6.40;3.20;;;;;;;3.63;80.51;96497.10;107850;1237;99292;-72
2024/01/02 03:55:58;;;;;;;7.90;3.50;;;;;;;3.61;80.38;96497.70;107762;1237;99026;-72
2024/01/02 03:58:27;;;;;;;6.00;2.90;;;;;;;3.61;80.42;96499.77;107760;1239;101413;-72
2024/01/02 04:00:54;;;;;;;7.20;3.50;;;;;;;3.62;80.47;96504.16;107782;1248;99815;-72
2024/01/02 04:03:20;;;;;;;8.60;3.80;;;;;;;3.61;80.25;96506.66;107785;1249;97911;-72
2024/01/02 04:05:47;;;;;;;7.90;3.20;;;;;;;3.59;80.20;96501.83;107714;1237;99072;-79
2024/01/02 04:08:13;;;;;;;7.80;3.70;;;;;;;3.56;80.22;96504.47;107725;1239;98730;-79
2024/01/02 04:10:40;;;;;;;7.60;3.20;;;;;;;3.57;80.32;96509.57;107845;1239;97929;-78
2024/01/02 04:13:06;;;;;;;7.10;3.00;;;;;;;3.58;80.32;96510.66;107757;1248;97902;-79
2024/01/02 04:15:33;;;;;;;6.10;2.80;;;;;;;3.59;80.35;96511.37;107820;1247;98379;-79
2024/01/02 04:18:00;;;;;;;7.20;3.10;;;;;;;3.60;80.26;96509.28;107800;1246;97900;-75
2024/01/02 04:20:26;;;;;;;10.80;3.00;;;;;;;3.61;80.29;96513.19;107828;1249;98425;-75
2024/01/02 04:22:56;;;;;;;6.50;3.00;;;;;;;3.60;80.03;96508.58;107766;1239;97903;-75
2024/01/02 04:25:22;;;;;;;9.00;3.70;;;;;;;3.61;80.12;96509.05;107789;1241;98350;-75
2024/01/02 04:27:52;;;;;;;7.40;3.20;;;;;;;3.61;80.16;96513.52;107804;1241;97942;-75
2024/01/02 04:30:18;;;;;;;8.40;3.40;;;;;;;3.60;80.25;96511.23;107810;1243;100188;-73
2024/01/02 04:32:44;;;;;;;10.40;3.60;;;;;;;3.61;80.23;96511.91;107776;1239;99155;-74
2024/01/02 04:35:11;;;;;;;5.30;3.20;;;;;;;3.59;80.28;96507.10;107789;1239;97972;-74
2024/01/02 04:37:37;;;;;;;6.90;3.50;;;;;;;3.61;80.33;96512.02;107832;1240;97957;-74
2024/01/02 04:40:05;;;;;;;6.50;3.30;;;;;;;3.62;80.30;96509.63;107754;1239;101248;-74
2024/01/02 04:42:35;;;;;;;10.10;3.50;;;;;;;3.63;80.22;96512.73;107757;1235;100162;-74
2024/01/02 04:45:02;;;;;;;8.40;3.70;;;;;;;3.64;80.19;96513.65;107771;1239;97929;-78
2024/01/02 04:47:29;;;;;;;8.20;3.50;;;;;;;3.64;80.05;96513.32;107712;1241;97868;-77
2024/01/02 04:49:56;;;;;;;7.20;3.60;;;;;;;3.65;80.18;96511.03;107811;1236;99049;-78
2024/01/02 04:52:22;;;;;;;7.60;3.40;;;;;;;3.67;80.17;96507.90;107812;1239;98574;-78
2024/01/02 04:54:48;;;;;;;8.10;3.30;;;;;;;3.68;79.95;96510.29;107794;1238;98818;-80
2024/01/02 04:57:16;;;;;;;7.40;3.50;;;;;;;3.69;79.95;96517.26;107814;1247;98464;-80
2024/01/02 04:59:42;;;;;;;13.40;3.10;;;;;;;3.71;79.99;96517.52;107845;1239;97923;-79
2024/01/02 05:02:09;;;;;;;7.30;3.40;;;;;;;3.71;80.03;96515.91;107779;1239;97894;-74
2024/01/02 05:04:35;;;;;;;9.10;3.10;;;;;;;3.73;80.15;96514.86;107444;1243;97900;-76
2024/01/02 05:07:01;;;;;;;5.10;3.00;;;;;;;3.74;80.08;96517.70;107861;1239;97901;-71
2024/01/02 05:09:27;;;;;;;8.10;3.10;;;;;;;3.75;79.81;96513.48;107636;1239;102497;-72
2024/01/02 05:11:54;;;;;;;7.40;3.00;;;;;;;3.76;79.77;96512.79;107607;1247;97911;-71
2024/01/02 05:14:21;;;;;;;6.70;3.00;;;;;;;3.74;79.91;96508.63;107703;1238;98543;-71
2024/01/02 05:16:47;;;;;;;6.20;2.80;;;;;;;3.74;79.92;96513.27;107668;1239;98278;-77
2024/01/02 05:19:13;;;;;;;9.10;3.00;;;;;;;3.75;79.90;96513.52;107772;1237;103769;-77
2024/01/02 05:21:39;;;;;;;8.00;2.90;;;;;;;3.74;79.73;96513.27;107801;1245;98702;-77
2024/01/02 05:24:06;;;;;;;8.00;3.10;;;;;;;3.71;79.30;96512.63;107777;1245;97878;-77
2024/01/02 05:26:32;;;;;;;8.60;4.00;;;;;;;3.72;79.11;96509.44;107832;1239;97917;-77
2024/01/02 05:28:58;;;;;;;6.80;3.40;;;;;;;3.73;79.27;96513.60;107791;1239;102079;-77
2024/01/02 05:31:24;;;;;;;7.00;3.40;;;;;;;3.73;79.06;96514.63;107793;1240;97953;-71
2024/01/02 05:33:51;;;;;;;5.50;3.20;;;;;;;3.71;78.89;96513.90;107762;1246;99163;-71
2024/01/02 05:36:17;;;;;;;5.60;3.40;;;;;;;3.72;79.00;96518.35;107860;1249;98022;-72
2024/01/02 05:38:43;;;;;;;8.50;3.50;;;;;;;3.72;78.84;96516.79;107776;1242;102610;-71
2024/01/02 05:41:10;;;;;;;7.50;3.20;;;;;;;3.70;78.70;96509.49;107843;1239;97877;-75
2024/01/02 05:43:36;;;;;;;7.70;3.40;;;;;;;3.67;78.73;96507.73;107697;1238;98861;-74
2024/01/02 05:46:03;;;;;;;8.40;3.30;;;;;;;3.65;78.78;96508.00;107832;1239;97926;-78
2024/01/02 05:48:30;;;;;;;8.30;3.60;;;;;;;3.63;78.65;96505.39;107826;1239;102223;-77
2024/01/02 05:50:57;;;;;;;6.70;2.80;;;;;;;3.62;78.73;96502.73;107819;1239;98821;-78
2024/01/02 05:53:23;;;;;;;7.00;3.40;;;;;;;3.61;78.82;96504.60;107787;1239;97902;-79
2024/01/02 05:55:50;;;;;;;6.50;3.40;;;;;;;3.60;78.89;96505.91;107821;1248;98540;-78
2024/01/02 05:58:16;;;;;;;7.60;3.60;;;;;;;3.60;78.85;96509.45;107743;1248;102714;-78
2024/01/02 06:00:42;;;;;;;7.50;3.60;;;;;;;3.60;78.70;96512.23;107654;1248;98744;-76
2024/01/02 06:03:08;;;;;;;8.70;3.40;;;;;;;3.56;78.67;96508.11;107861;1238;98855;-76
2024/01/02 06:05:35;;;;;;;9.20;3.50;;;;;;;3.57;78.83;96511.42;107833;1241;97936;-77
2024/01/02 06:08:01;;;;;;;12.50;5.30;;;;;;;3.58;78.74;96510.61;107834;1239;103499;-77
2024/01/02 06:10:27;;;;;;;18.50;9.60;;;;;;;3.56;78.67;96511.73;107800;1249;97940;-77
2024/01/02 06:12:54;;;;;;;31.80;18.20;;;;;;;3.54;78.71;96508.50;107779;1246;97950;-76
2024/01/02 06:15:20;;;;;;;69.50;33.10;;;;;;;3.55;78.78;96511.38;107463;1243;97938;-77
2024/01/02 06:17:46;;;;;;;43.10;21.30;;;;;;;3.55;78.76;96510.29;107792;1249;103341;-74
2024/01/02 06:20:13;;;;;;;34.50;16.40;;;;;;;3.55;78.70;96512.25;107776;1239;97945;-74
2024/01/02 06:22:39;;;;;;;29.50;14.40;;;;;;;3.54;78.68;96509.05;107757;1248;99137;-74
2024/01/02 06:25:09;;;;;;;24.20;12.30;;;;;;;3.52;78.69;96510.04;107816;1235;98081;-74
2024/01/02 06:27:36;;;;;;;23.00;11.40;;;;;;;3.50;78.75;96513.56;107786;1239;103066;-74
2024/01/02 06:30:07;;;;;;;12.00;6.50;;;;;;;3.46;78.86;96512.45;107757;1245;98020;-74
2024/01/02 06:32:33;;;;;;;9.20;4.30;;;;;;;3.43;78.57;96512.61;107778;1238;99269;-75
2024/01/02 06:35:00;;;;;;;8.70;3.40;;;;;;;3.44;78.48;96513.86;107758;1239;99141;-74
2024/01/02 06:37:27;;;;;;;5.10;3.30;;;;;;;3.46;78.40;96515.23;107822;1242;99198;-74
2024/01/02 06:39:54;;;;;;;12.80;4.70;;;;;;;3.47;78.46;96520.27;107796;1249;97911;-76
2024/01/02 06:42:20;;;;;;;8.90;4.40;;;;;;;3.48;78.44;96521.91;107705;1239;98007;-76
2024/01/02 06:44:47;;;;;;;10.90;5.10;;;;;;;3.48;78.26;96521.71;107781;1241;97952;-76
2024/01/02 06:47:13;;;;;;;8.90;4.70;;;;;;;3.49;78.28;96522.00;107812;1243;97921;-71
2024/01/02 06:49:40;;;;;;;8.80;3.90;;;;;;;3.49;78.01;96525.70;107780;1239;98843;-71
2024/01/02 06:52:06;;;;;;;10.00;4.00;;;;;;;3.49;77.90;96520.90;107817;1241;99032;-71
2024/01/02 06:54:33;;;;;;;9.00;3.90;;;;;;;3.51;77.88;96518.61;107787;1241;98008;-71
2024/01/02 06:56:59;;;;;;;11.00;4.00;;;;;;;3.53;77.85;96518.55;107785;1248;97939;-71
2024/01/02 06:59:25;;;;;;;10.10;4.50;;;;;;;3.53;77.73;96520.02;107784;1243;97972;-77
2024/01/02 07:01:52;;;;;;;7.60;3.30;;;;;;;3.52;77.17;96519.42;107827;1238;99141;-78
2024/01/02 07:04:18;;;;;;;10.70;4.00;;;;;;;3.51;77.19;96518.80;107781;1243;99061;-78
2024/01/02 07:06:44;;;;;;;13.10;5.10;;;;;;;3.51;77.52;96519.84;107767;1241;99173;-78
2024/01/02 07:09:10;;;;;;;8.70;3.50;;;;;;;3.49;77.50;96518.19;107762;1238;98817;-78
2024/01/02 07:11:37;;;;;;;12.00;4.40;;;;;;;3.49;77.59;96515.59;107840;1240;98946;-79
2024/01/02 07:14:03;;;;;;;10.50;4.00;;;;;;;3.46;77.63;96513.56;107778;1238;97981;-78
2024/01/02 07:16:31;;;;;;;8.80;4.00;;;;;;;3.43;77.71;96516.14;107788;1238;97904;-71
2024/01/02 07:18:58;;;;;;;13.70;4.50;;;;;;;3.39;77.82;96514.21;107749;1239;98594;-71
2024/01/02 07:21:24;;;;;;;12.10;7.10;;;;;;;3.40;77.78;96516.64;107797;1246;98039;-73
2024/01/02 07:23:50;;;;;;;25.50;13.10;;;;;;;3.38;77.81;96522.05;107821;1235;98845;-73
2024/01/02 07:26:17;;;;;;;26.00;12.50;;;;;;;3.38;77.91;96527.83;107788;1249;98336;-71
2024/01/02 07:28:43;;;;;;;20.00;10.10;;;;;;;3.36;77.99;96530.14;107820;1240;98026;-71
2024/01/02 07:31:11;;;;;;;16.00;9.40;;;;;;;3.33;78.07;96527.14;107792;1238;99174;-70
2024/01/02 07:33:37;;;;;;;22.60;15.50;;;;;;;3.31;78.14;96525.84;107767;1240;97939;-71
2024/01/02 07:36:04;;;;;;;25.90;18.30;;;;;;;3.30;78.25;96523.24;107642;1241;98884;-71
2024/01/02 07:38:30;;;;;;;28.90;18.20;;;;;;;3.29;78.17;96523.02;107669;1241;102648;-78
2024/01/02 07:40:57;;;;;;;22.50;12.10;;;;;;;3.28;78.29;96520.48;107584;1239;97927;-78
2024/01/02 07:43:23;;;;;;;20.90;13.90;;;;;;;3.26;78.18;96516.36;107780;1249;97936;-78
2024/01/02 07:45:49;;;;;;;22.60;12.70;;;;;;;3.25;78.27;96512.59;107881;1237;99163;-74
2024/01/02 07:48:16;;;;;;;17.40;8.40;;;;;;;3.24;78.22;96513.08;107739;1248;103102;-74
2024/01/02 07:50:42;;;;;;;25.20;11.20;;;;;;;3.24;77.92;96513.40;107727;1239;98566;-74
2024/01/02 07:53:08;;;;;;;27.40;12.70;;;;;;;3.29;78.06;96516.95;107757;1239;99289;-74
2024/01/02 07:55:35;;;;;;;26.80;12.10;;;;;;;3.34;78.03;96517.20;107650;1241;98002;-74
2024/01/02 07:58:01;;;;;;;28.30;12.90;;;;;;;3.37;78.20;96513.34;107618;1241;103509;-78
2024/01/02 08:00:27;;;;;;;24.00;12.50;;;;;;;3.40;78.33;96514.67;107769;1238;99141;-78
2024/01/02 08:02:54;;;;;;;25.90;11.80;;;;;;;3.42;78.29;96509.81;107782;1249;97854;-77
2024/01/02 08:05:20;;;;;;;25.70;11.60;;;;;;;3.48;78.28;96508.61;107821;1243;98795;-76
2024/01/02 08:07:46;;;;;;;20.40;9.90;;;;;;;3.51;78.28;96505.51;107804;1241;103640;-77
2024/01/02 08:10:12;;;;;;;17.20;8.80;;;;;;;3.54;78.40;96500.13;107810;1246;97938;-77
2024/01/02 08:12:39;;;;;;;17.40;7.60;;;;;;;3.56;78.25;96500.89;107748;1241;98009;-77
2024/01/02 08:15:05;;;;;;;23.40;7.40;;;;;;;3.60;78.04;96499.35;107846;1240;97879;-79
2024/01/02 08:22:16;;;;;;;21.10;7.10;;;;;;;3.68;77.77;96501.89;108148;1234;101726;-83
2024/01/02 08:25:23;;;;;;;17.50;6.80;;;;;;;3.74;77.09;96500.80;108036;1237;98964;-83
2024/01/02 08:28:30;;;;;;;10.70;3.70;;;;;;;3.81;76.88;96495.48;108044;1244;98786;-82
2024/01/02 08:31:38;;;;;;;13.90;4.00;;;;;;;3.89;76.61;96491.27;108077;1235;98429;-83
2024/01/02 08:34:44;;;;;;;13.50;4.00;;;;;;;3.98;76.63;96487.00;108085;1238;105862;-82
2024/01/02 08:37:52;;;;;;;14.40;3.80;;;;;;;4.07;76.35;96487.58;107951;1234;101717;-82
2024/01/02 08:40:58;;;;;;;11.00;3.40;;;;;;;4.15;75.81;96489.80;108049;1247;98806;-82
2024/01/02 08:44:05;;;;;;;10.40;3.60;;;;;;;4.22;75.24;96495.70;107996;1237;98052;-85
2024/01/02 08:47:13;;;;;;;14.50;6.20;;;;;;;4.29;75.31;96493.73;107884;1238;97946;-83
2024/01/02 08:50:19;;;;;;;19.10;7.00;;;;;;;4.39;75.74;96489.55;108070;1242;102121;-83
2024/01/02 08:53:26;;;;;;;13.90;5.00;;;;;;;4.49;75.15;96484.34;108247;1238;100152;-83
2024/01/02 08:56:33;;;;;;;13.00;5.30;;;;;;;4.52;74.38;96479.84;110088;1237;98797;-84
2024/01/02 08:59:40;;;;;;;11.50;5.00;;;;;;;4.59;74.60;96478.89;108214;1244;98005;-83
2024/01/02 09:02:38;;;;;;;13.90;4.80;;;;;;;4.65;74.36;96478.36;108215;1235;98645;-82
2024/01/02 09:05:05;;;;;;;14.60;4.90;;;;;;;4.73;74.41;96472.73;108510;1234;231405;-76
2024/01/02 09:07:32;;;;;;;13.70;5.30;;;;;;;4.77;73.61;96469.59;108108;1236;97914;-76
2024/01/02 09:09:59;;;;;;;10.00;4.80;;;;;;;4.78;73.91;96468.02;108017;1237;99164;-76
2024/01/02 09:12:25;;;;;;;14.70;4.10;;;;;;;4.83;73.87;96462.53;108016;1237;97991;-77
2024/01/02 09:14:51;;;;;;;9.50;4.50;;;;;;;4.90;73.78;96463.23;107953;1232;97879;-77
2024/01/02 09:17:18;;;;;;;9.60;4.60;;;;;;;4.98;73.43;96467.55;107896;1238;101450;-74
2024/01/02 09:19:45;;;;;;;14.40;5.60;;;;;;;5.08;73.86;96469.56;107976;1236;99727;-74
2024/01/02 09:22:11;;;;;;;14.80;6.00;;;;;;;5.18;73.56;96475.54;108001;1232;97905;-74
2024/01/02 09:24:39;;;;;;;12.60;5.10;;;;;;;5.27;73.63;96471.04;107915;1236;97990;-74
2024/01/02 09:27:08;;;;;;;13.80;5.20;;;;;;;5.38;73.52;96475.20;108008;1235;97981;-74
2024/01/02 09:29:34;;;;;;;12.00;4.60;;;;;;;5.46;72.85;96475.61;108019;1235;99183;-75
2024/01/02 09:32:01;;;;;;;11.20;4.10;;;;;;;5.53;72.33;96473.46;107972;1247;99125;-75
2024/01/02 09:34:27;;;;;;;11.60;4.20;;;;;;;5.58;72.07;96470.34;108037;1237;98612;-74
2024/01/02 09:36:53;;;;;;;15.40;4.30;;;;;;;5.62;72.46;96471.05;107986;1238;103434;-74
2024/01/02 09:39:20;;;;;;;12.30;3.20;;;;;;;5.67;72.41;96467.80;108064;1243;98069;-74
2024/01/02 09:42:04;;;;;;;11.80;3.40;;;;;;;5.69;71.71;96463.14;108081;1236;97980;-74
2024/01/02 09:45:07;;;;;;;8.20;3.50;;;;;;;5.75;71.82;96465.84;107920;1241;97910;-76
2024/01/02 09:47:36;;;;;;;;;;;;;;;5.89;72.29;96464.64;108083;1236;97911;-74
2024/01/02 09:50:35;;;;;;;10.90;3.40;;;;;;;6.04;72.03;96457.52;107962;1235;102525;-74
2024/01/02 09:53:45;;;;;;;9.40;3.80;;;;;;;6.22;71.27;96451.43;107997;1235;100972;-76
2024/01/02 09:56:20;;;;;;;11.80;4.20;;;;;;;6.38;71.24;96438.50;107993;1236;99861;-77
2024/01/02 09:59:00;;;;;;;9.70;3.30;;;;;;;6.51;70.99;96437.04;107917;1234;99126;-77
2024/01/02 10:01:52;;;;;;;12.80;4.10;;;;;;;6.61;70.98;96437.33;108145;1237;98429;-77
2024/01/02 10:04:30;;;;;;;;;;;;;;;6.71;70.04;96438.02;108892;1234;103371;-77
2024/01/02 10:07:25;;;;;;;11.80;4.10;;;;;;;6.70;69.07;96437.90;107940;1236;100208;-77
2024/01/02 10:10:33;;;;;;;9.50;3.60;;;;;;;6.64;68.16;96432.55;107648;1238;98628;-78
2024/01/02 10:13:08;;;;;;;11.00;3.10;;;;;;;6.57;68.35;96427.41;107342;1246;97960;-79
2024/01/02 10:15:42;;;;;;;10.80;2.80;;;;;;;6.51;68.23;96420.91;108007;1243;98400;-76
2024/01/02 10:18:33;;;;;;;12.30;3.70;;;;;;;6.49;68.49;96416.84;108090;1237;103457;-76
2024/01/02 10:21:15;;;;;;;9.80;3.20;;;;;;;6.53;68.50;96413.14;107885;1234;101386;-76
2024/01/02 10:24:04;;;;;;;10.00;3.40;;;;;;;6.57;68.19;96408.15;107889;1237;99741;-75
2024/01/02 10:26:37;;;;;;;12.20;3.60;;;;;;;6.58;67.71;96406.08;107826;1246;97982;-75
2024/01/02 10:29:12;;;;;;;12.70;4.40;;;;;;;6.57;67.73;96395.98;108141;1236;98371;-77
2024/01/02 10:31:47;;;;;;;12.50;3.90;;;;;;;6.53;67.31;96398.71;107897;1236;102642;-78
2024/01/02 10:35:04;;;;;;;14.00;4.00;;;;;;;6.49;67.83;96392.38;108080;1239;99792;-76
2024/01/02 10:37:39;;;;;;;10.40;3.40;;;;;;;6.49;68.05;96385.86;108091;1241;98863;-77
2024/01/02 10:40:08;;;;;;;10.40;3.50;;;;;;;6.46;67.46;96379.30;111229;1232;95544;-76
2024/01/02 10:43:37;;;;;;;10.50;4.20;;;;;;;6.46;68.03;96372.79;109195;1232;97976;-77
2024/01/02 10:46:25;;;;;;;12.40;4.20;;;;;;;6.51;68.02;96369.80;107970;1240;103078;-86
2024/01/02 10:49:06;;;;;;;13.70;4.20;;;;;;;6.56;68.00;96367.92;108226;1239;100398;-78
2024/01/02 10:51:59;;;;;;;8.20;3.50;;;;;;;6.57;66.99;96367.59;107927;1236;99414;-81
2024/01/02 10:54:38;;;;;;;11.90;3.50;;;;;;;6.54;67.14;96363.85;107836;1238;97870;-83
2024/01/02 10:57:08;;;;;;;8.50;3.20;;;;;;;6.56;66.25;96361.08;108076;1234;98822;-79
2024/01/02 11:00:22;;;;;;;9.90;3.50;;;;;;;6.53;66.02;96360.27;108109;1244;103438;-80
2024/01/02 11:03:10;;;;;;;15.50;5.00;;;;;;;6.47;65.39;96355.55;107981;1233;101344;-77
2024/01/02 11:06:15;;;;;;;12.10;3.80;;;;;;;6.46;66.07;96346.39;107210;1245;99869;-79
2024/01/02 11:09:07;;;;;;;12.00;3.40;;;;;;;6.47;65.96;96341.61;107148;1256;98002;-78
2024/01/02 11:11:38;;;;;;;3.60;2.20;;;;;;;6.50;66.28;96334.92;107147;1245;98745;-80
2024/01/02 11:14:07;;;;;;;9.40;2.90;;;;;;;6.55;66.30;96325.39;107080;1245;103547;-80
2024/01/02 11:16:39;;;;;;;12.90;4.50;;;;;;;6.64;66.63;96321.20;107226;1255;101363;-80
2024/01/02 11:19:07;;;;;;;14.30;6.90;;;;;;;6.75;66.04;96314.50;107164;1241;99398;-80
2024/01/02 11:22:00;;;;;;;14.10;5.40;;;;;;;6.83;64.82;96312.41;107143;1245;98071;-79
2024/01/02 11:25:07;;;;;;;10.80;4.60;;;;;;;6.89;65.51;96302.38;107046;1245;188268;-81
2024/01/02 11:28:05;;;;;;;7.90;3.50;;;;;;;7.00;65.26;96298.55;107068;1243;103418;-77
2024/01/02 11:30:53;;;;;;;9.30;3.60;;;;;;;7.03;65.09;96293.39;107201;1255;101202;-77
2024/01/02 11:34:05;;;;;;;6.10;2.50;;;;;;;7.05;65.64;96291.17;107149;1246;98972;-79
2024/01/02 11:37:02;;;;;;;10.90;4.20;;;;;;;7.01;64.70;96285.56;107143;1247;98369;-80
2024/01/02 11:39:58;;;;;;;10.50;3.60;;;;;;;6.94;65.16;96283.41;107194;1243;98549;-81
2024/01/02 11:43:03;;;;;;;9.50;3.60;;;;;;;6.89;64.92;96283.73;107180;1243;102451;-80
2024/01/02 11:45:34;;;;;;;11.90;3.40;;;;;;;6.75;63.77;96282.73;107845;1236;101200;-81
2024/01/02 11:48:18;;;;;;;10.80;3.20;;;;;;;6.65;64.29;96277.33;107968;1236;99926;-80
2024/01/02 11:51:23;;;;;;;13.90;5.40;;;;;;;6.57;63.90;96271.16;107946;1243;99007;-77
2024/01/02 11:53:55;;;;;;;11.60;3.80;;;;;;;6.56;64.91;96263.89;107760;1243;98909;-77